createdAt,value
2022-10-01T00:02:28.614Z,34.55
2022-10-01T00:05:20.351Z,33.83
2022-10-01T00:08:02.628Z,32.03
2022-10-01T00:10:52.302Z,33.22
2022-10-01T00:13:41.303Z,32.15
2022-10-01T00:16:27.597Z,31.40
2022-10-01T00:19:16.203Z,30.63
2022-10-01T00:22:04.588Z,30.73
2022-10-01T00:24:47.285Z,30.10
2022-10-01T00:27:30.556Z,30.63
2022-10-01T00:30:20.216Z,30.35
2022-10-01T00:33:08.607Z,31.92
2022-10-01T00:35:51.290Z,33.53
2022-10-01T00:38:41.394Z,32.28
2022-10-01T00:41:25.311Z,31.92
2022-10-01T00:44:30.321Z,31.13
2022-10-01T00:47:47.303Z,32.88
2022-10-01T00:50:35.177Z,32.53
2022-10-01T00:53:26.326Z,30.33
2022-10-01T00:56:22.150Z,32.75
2022-10-01T00:59:11.328Z,31.77
2022-10-01T01:01:53.794Z,34.35
2022-10-01T01:04:42.293Z,34.15
2022-10-01T01:07:24.721Z,32.63
2022-10-01T01:10:15.198Z,33.17
2022-10-01T01:13:03.598Z,31.35
2022-10-01T01:15:53.324Z,30.63
2022-10-01T01:19:06.312Z,30.02
2022-10-01T01:22:01.298Z,28.77
2022-10-01T01:25:07.785Z,30.40
2022-10-01T01:28:17.389Z,29.85
2022-10-01T01:31:11.618Z,28.38
2022-10-01T01:33:58.295Z,27.63
2022-10-01T01:36:48.246Z,29.38
2022-10-01T01:39:41.299Z,30.05
2022-10-01T01:42:38.303Z,31.40
2022-10-01T01:45:33.360Z,28.65
2022-10-01T01:48:17.859Z,30.92
2022-10-01T01:51:28.313Z,30.13
2022-10-01T01:54:20.109Z,28.42
2022-10-01T01:57:17.338Z,31.10
2022-10-01T01:59:59.472Z,30.17
2022-10-01T02:02:50.491Z,31.10
2022-10-01T02:05:49.599Z,29.45
2022-10-01T02:08:43.347Z,30.52
2022-10-01T02:11:43.859Z,28.67
2022-10-01T02:14:40.299Z,30.05
2022-10-01T02:18:19.610Z,29.20
2022-10-01T02:21:29.183Z,28.80
2022-10-01T02:24:47.604Z,30.55
2022-10-01T02:27:45.354Z,32.55
2022-10-01T02:30:36.293Z,31.50
2022-10-01T02:33:21.587Z,32.60
2022-10-01T02:36:16.307Z,28.25
2022-10-01T02:39:02.615Z,29.05
2022-10-01T02:41:54.275Z,26.98
2022-10-01T02:44:50.280Z,26.17
2022-10-01T02:47:45.693Z,26.25
2022-10-01T02:50:34.314Z,26.52
2022-10-01T02:53:49.312Z,25.95
2022-10-01T02:56:56.049Z,28.13
2022-10-01T02:59:48.329Z,28.30
2022-10-01T03:02:30.704Z,27.05
2022-10-01T03:05:19.310Z,28.30
2022-10-01T03:08:01.563Z,27.65
2022-10-01T03:10:50.211Z,30.05
2022-10-01T03:13:32.555Z,28.63
2022-10-01T03:16:21.393Z,29.33
2022-10-01T03:19:03.609Z,30.20
2022-10-01T03:21:52.313Z,30.15
2022-10-01T03:24:34.580Z,29.33
2022-10-01T03:27:23.277Z,26.73
2022-10-01T03:30:06.770Z,26.92
2022-10-01T03:32:55.270Z,27.33
2022-10-01T03:35:44.203Z,25.80
2022-10-01T03:38:32.599Z,27.55
2022-10-01T03:41:14.297Z,24.35
2022-10-01T03:44:00.400Z,23.33
2022-10-01T03:46:49.178Z,21.85
2022-10-01T03:49:38.213Z,21.33
2022-10-01T03:52:21.470Z,23.20
2022-10-01T03:55:10.211Z,22.17
2022-10-01T03:58:06.135Z,21.45
2022-10-01T04:00:57.303Z,21.05
2022-10-01T04:03:40.987Z,19.67
2022-10-01T04:06:31.341Z,21.02
2022-10-01T04:09:13.722Z,20.90
2022-10-01T04:12:03.295Z,20.40
2022-10-01T04:14:45.587Z,20.70
2022-10-01T04:17:34.301Z,18.60
2022-10-01T04:20:24.194Z,18.80
2022-10-01T04:23:13.362Z,19.20
2022-10-01T04:25:55.574Z,17.33
2022-10-01T04:28:44.295Z,16.98
2022-10-01T04:31:26.808Z,17.58
2022-10-01T04:34:16.217Z,16.00
2022-10-01T04:37:05.288Z,15.15
2022-10-01T04:39:54.304Z,17.00
2022-10-01T04:42:36.595Z,14.90
2022-10-01T04:45:25.277Z,13.85
2022-10-01T04:48:07.814Z,14.55
2022-10-01T04:50:56.273Z,13.57
2022-10-01T04:53:38.737Z,13.57
2022-10-01T04:56:27.305Z,14.82
2022-10-01T04:59:22.219Z,14.43
2022-10-01T05:02:11.311Z,17.65
2022-10-01T05:04:53.563Z,16.73
2022-10-01T05:07:43.294Z,16.08
2022-10-01T05:10:29.739Z,14.48
2022-10-01T05:13:19.226Z,15.60
2022-10-01T05:16:03.398Z,14.35
2022-10-01T05:18:52.301Z,14.10
2022-10-01T05:21:34.863Z,16.48
2022-10-01T05:24:34.293Z,15.30
2022-10-01T05:27:16.618Z,14.50
2022-10-01T05:30:05.289Z,15.75
2022-10-01T05:32:47.670Z,16.20
2022-10-01T05:35:37.276Z,15.93
2022-10-01T05:38:19.683Z,14.75
2022-10-01T05:41:08.514Z,14.48
2022-10-01T05:43:50.750Z,12.93
2022-10-01T05:46:40.333Z,12.23
2022-10-01T05:49:22.707Z,13.13
2022-10-01T05:52:12.347Z,12.60
2022-10-01T05:54:54.603Z,13.55
2022-10-01T05:57:43.359Z,13.68
2022-10-01T06:00:25.671Z,13.90
2022-10-01T06:03:16.502Z,12.15
2022-10-01T06:05:58.753Z,12.40
2022-10-01T06:08:47.333Z,12.10
2022-10-01T06:11:29.873Z,11.23
2022-10-01T06:14:18.331Z,12.45
2022-10-01T06:17:03.627Z,11.27
2022-10-01T06:19:52.233Z,11.68
2022-10-01T06:22:35.094Z,11.27
2022-10-01T06:25:24.296Z,9.63
2022-10-01T06:28:14.488Z,8.50
2022-10-01T06:31:03.334Z,10.45
2022-10-01T06:33:45.647Z,11.00
2022-10-01T06:36:34.351Z,11.60
2022-10-01T06:39:16.865Z,12.05
2022-10-01T06:42:05.282Z,11.43
2022-10-01T06:44:54.295Z,10.27
2022-10-01T06:47:43.285Z,10.93
2022-10-01T06:50:25.738Z,10.95
2022-10-01T06:53:14.301Z,10.40
2022-10-01T06:55:56.697Z,10.63
2022-10-01T06:58:45.366Z,10.70
2022-10-01T07:01:34.672Z,10.80
2022-10-01T07:04:22.666Z,10.07
2022-10-01T07:07:05.371Z,10.73
2022-10-01T07:09:53.826Z,11.60
2022-10-01T07:12:36.330Z,10.18
2022-10-01T07:15:27.339Z,10.43
2022-10-01T07:18:12.516Z,10.52
2022-10-01T07:21:01.274Z,10.05
2022-10-01T07:23:51.362Z,10.65
2022-10-01T07:26:40.646Z,10.48
2022-10-01T07:29:22.332Z,9.95
2022-10-01T07:32:09.645Z,10.02
2022-10-01T07:34:58.704Z,10.80
2022-10-01T07:37:46.600Z,10.60
2022-10-01T07:40:29.286Z,9.85
2022-10-01T07:43:11.788Z,10.38
2022-10-01T07:46:02.405Z,10.38
2022-10-01T07:48:54.281Z,10.25
2022-10-01T07:51:44.341Z,10.10
2022-10-01T07:54:27.563Z,11.05
2022-10-01T07:57:16.315Z,10.60
2022-10-01T08:00:05.804Z,10.50
2022-10-01T08:02:47.385Z,10.50
2022-10-01T08:05:43.381Z,10.07
2022-10-01T08:08:25.819Z,9.90
2022-10-01T08:11:17.367Z,9.82
2022-10-01T08:14:06.260Z,11.30
2022-10-01T08:16:55.457Z,11.60
2022-10-01T08:19:38.620Z,9.90
2022-10-01T08:22:27.237Z,10.75
2022-10-01T08:25:09.668Z,11.02
2022-10-01T08:27:58.611Z,10.98
2022-10-01T08:30:47.311Z,10.13
2022-10-01T08:33:29.595Z,10.43
2022-10-01T08:36:20.358Z,10.03
2022-10-01T08:39:10.234Z,9.57
2022-10-01T08:42:17.068Z,8.55
2022-10-01T08:45:02.920Z,10.20
2022-10-01T08:47:57.298Z,9.70
2022-10-01T08:51:01.802Z,9.55
2022-10-01T08:56:46.442Z,9.70
2022-10-01T09:00:16.402Z,9.80
2022-10-01T09:02:59.713Z,9.82
2022-10-01T09:09:02.678Z,9.57
2022-10-01T09:12:23.338Z,10.02
2022-10-01T09:15:38.266Z,9.63
2022-10-01T09:18:45.187Z,9.27
2022-10-01T09:21:55.259Z,9.82
2022-10-01T09:25:01.296Z,7.65
2022-10-01T09:27:46.837Z,8.55
2022-10-01T09:30:37.260Z,8.68
2022-10-01T09:33:34.412Z,8.07
2022-10-01T09:36:53.600Z,6.88
2022-10-01T09:39:48.274Z,6.57
2022-10-01T09:42:31.770Z,7.43
2022-10-01T09:45:21.218Z,7.40
2022-10-01T09:48:27.688Z,7.18
2022-10-01T09:51:21.296Z,6.90
2022-10-01T09:54:19.435Z,7.40
2022-10-01T09:57:15.346Z,7.57
2022-10-01T10:00:15.728Z,8.32
2022-10-01T10:03:00.510Z,8.05
2022-10-01T10:05:47.711Z,8.40
2022-10-01T10:08:53.197Z,7.97
2022-10-01T10:11:42.187Z,7.70
2022-10-01T10:14:29.741Z,8.35
2022-10-01T10:17:24.244Z,7.75
2022-10-01T10:20:06.634Z,8.18
2022-10-01T10:22:57.298Z,7.65
2022-10-01T10:25:39.781Z,8.52
2022-10-01T10:28:33.556Z,7.97
2022-10-01T10:31:32.420Z,10.23
2022-10-01T10:34:32.314Z,8.57
2022-10-01T10:37:29.301Z,9.02
2022-10-01T10:40:32.613Z,8.88
2022-10-01T10:43:24.469Z,8.90
2022-10-01T10:46:16.421Z,8.57
2022-10-01T10:52:16.309Z,8.00
2022-10-01T10:55:00.508Z,8.73
2022-10-01T10:57:49.408Z,9.18
2022-10-01T11:00:37.617Z,8.77
2022-10-01T11:03:25.327Z,8.68
2022-10-01T11:06:23.159Z,8.35
2022-10-01T11:09:16.270Z,8.93
2022-10-01T11:12:10.623Z,8.60
2022-10-01T11:15:22.343Z,7.93
2022-10-01T11:18:28.286Z,7.80
2022-10-01T11:21:43.669Z,8.20
2022-10-01T11:25:13.299Z,8.02
2022-10-01T11:28:30.367Z,8.20
2022-10-01T11:31:38.647Z,8.15
2022-10-01T11:34:57.280Z,8.57
2022-10-01T11:38:04.034Z,8.07
2022-10-01T11:40:58.173Z,6.97
2022-10-01T11:44:11.197Z,7.72
2022-10-01T11:47:28.267Z,8.30
2022-10-01T11:50:46.274Z,7.72
2022-10-01T11:53:46.296Z,7.95
2022-10-01T11:56:53.075Z,7.72
2022-10-01T11:59:52.318Z,8.70
2022-10-01T12:03:12.344Z,7.78
2022-10-01T12:05:58.010Z,8.13
2022-10-01T12:08:50.312Z,9.02
2022-10-01T12:12:00.243Z,9.93
2022-10-01T12:14:52.866Z,9.13
2022-10-01T12:17:53.263Z,12.05
2022-10-01T12:20:42.595Z,9.13
2022-10-01T12:23:39.258Z,10.75
2022-10-01T12:26:51.883Z,10.40
2022-10-01T12:29:52.378Z,10.05
2022-10-01T12:33:06.262Z,9.90
2022-10-01T12:39:27.580Z,9.40
2022-10-01T12:42:39.894Z,10.77
2022-10-01T12:45:36.619Z,10.23
2022-10-01T12:48:52.372Z,11.15
2022-10-01T12:52:19.189Z,10.68
2022-10-01T12:55:29.380Z,13.73
2022-10-01T12:58:35.710Z,11.50
2022-10-01T13:01:30.808Z,11.25
2022-10-01T13:04:48.642Z,12.63
2022-10-01T13:07:44.278Z,12.82
2022-10-01T13:11:03.466Z,14.45
2022-10-01T13:13:54.342Z,16.83
2022-10-01T13:16:57.410Z,17.33
2022-10-01T13:19:59.406Z,18.17
2022-10-01T13:23:15.689Z,18.58
2022-10-01T13:26:09.354Z,19.23
2022-10-01T13:29:16.339Z,18.00
2022-10-01T13:32:12.971Z,17.88
2022-10-01T13:34:57.904Z,16.33
2022-10-01T13:37:48.372Z,16.02
2022-10-01T13:40:34.692Z,17.05
2022-10-01T13:43:31.438Z,17.30
2022-10-01T13:46:18.673Z,16.17
2022-10-01T13:49:30.298Z,16.92
2022-10-01T13:52:36.117Z,16.92
2022-10-01T13:55:38.172Z,17.10
2022-10-01T13:58:34.811Z,16.73
2022-10-01T14:01:28.378Z,17.27
2022-10-01T14:04:49.979Z,11.25
2022-10-01T14:07:45.292Z,17.25
2022-10-01T14:10:27.711Z,18.02
2022-10-01T14:13:38.903Z,17.73
2022-10-01T14:16:23.261Z,18.20
2022-10-01T14:19:13.393Z,16.73
2022-10-01T14:22:28.794Z,16.90
2022-10-01T14:25:57.826Z,16.63
2022-10-01T14:29:09.192Z,18.45
2022-10-01T14:32:17.573Z,16.55
2022-10-01T14:35:20.358Z,17.95
2022-10-01T14:38:19.352Z,19.15
2022-10-01T14:41:10.330Z,18.27
2022-10-01T14:43:52.735Z,18.60
2022-10-01T14:46:41.642Z,16.90
2022-10-01T14:49:36.330Z,18.33
2022-10-01T14:52:28.572Z,19.27
2022-10-01T14:55:15.268Z,19.40
2022-10-01T14:58:05.307Z,17.85
2022-10-01T15:00:59.818Z,18.27
2022-10-01T15:03:51.326Z,18.58
2022-10-01T15:06:42.329Z,19.65
2022-10-01T15:09:32.342Z,17.65
2022-10-01T15:12:21.240Z,20.40
2022-10-01T15:15:10.344Z,20.63
2022-10-01T15:18:00.247Z,21.27
2022-10-01T15:21:00.246Z,18.20
2022-10-01T15:23:44.583Z,19.48
2022-10-01T15:26:37.497Z,19.80
2022-10-01T15:29:30.244Z,21.67
2022-10-01T15:32:25.452Z,19.33
2022-10-01T15:35:10.886Z,19.08
2022-10-01T15:38:09.337Z,20.95
2022-10-01T15:41:13.929Z,19.52
2022-10-01T15:44:12.277Z,19.20
2022-10-01T15:46:54.723Z,20.05
2022-10-01T15:49:43.349Z,19.85
2022-10-01T15:52:52.088Z,19.25
2022-10-01T15:55:57.417Z,20.70
2022-10-01T15:58:46.629Z,19.13
2022-10-01T16:01:46.367Z,18.88
2022-10-01T16:04:29.656Z,20.65
2022-10-01T16:07:30.543Z,20.60
2022-10-01T16:10:46.718Z,19.45
2022-10-01T16:13:46.444Z,20.17
2022-10-01T16:16:31.907Z,19.08
2022-10-01T16:19:31.245Z,19.98
2022-10-01T16:22:32.299Z,20.77
2022-10-01T16:25:32.265Z,19.75
2022-10-01T16:28:48.255Z,19.27
2022-10-01T16:31:39.376Z,19.40
2022-10-01T16:34:26.575Z,19.70
2022-10-01T16:37:17.274Z,19.08
2022-10-01T16:39:59.759Z,19.52
2022-10-01T16:42:50.332Z,20.48
2022-10-01T16:45:44.301Z,18.85
2022-10-01T16:48:26.858Z,20.40
2022-10-01T16:51:15.428Z,19.48
2022-10-01T16:54:05.602Z,18.95
2022-10-01T16:56:52.259Z,18.20
2022-10-01T16:59:35.218Z,18.13
2022-10-01T17:02:29.494Z,19.08
2022-10-01T17:05:29.650Z,17.73
2022-10-01T17:08:18.235Z,17.63
2022-10-01T17:11:12.504Z,16.30
2022-10-01T17:14:01.205Z,15.93
2022-10-01T17:16:44.236Z,16.25
2022-10-01T17:19:33.680Z,16.70
2022-10-01T17:22:15.540Z,16.30
2022-10-01T17:25:04.336Z,15.73
2022-10-01T17:27:54.366Z,15.40
2022-10-01T17:30:37.763Z,15.45
2022-10-01T17:33:27.366Z,17.85
2022-10-01T17:36:16.368Z,16.33
2022-10-01T17:39:05.337Z,15.40
2022-10-01T17:41:54.275Z,16.35
2022-10-01T17:44:36.744Z,15.32
2022-10-01T17:47:25.169Z,15.15
2022-10-01T17:50:15.236Z,16.92
2022-10-01T17:53:09.700Z,15.45
2022-10-01T17:55:54.388Z,15.43
2022-10-01T17:58:39.555Z,14.82
2022-10-01T18:01:33.292Z,16.48
2022-10-01T18:04:22.682Z,14.80
2022-10-01T18:07:06.289Z,15.68
2022-10-01T18:09:55.658Z,14.95
2022-10-01T18:12:38.280Z,15.40
2022-10-01T18:15:27.816Z,16.63
2022-10-01T18:19:45.775Z,15.60
2022-10-01T18:21:21.353Z,15.07
2022-10-01T18:24:05.013Z,15.57
2022-10-01T18:26:54.391Z,15.98
2022-10-01T18:29:36.733Z,15.52
2022-10-01T18:32:31.226Z,16.55
2022-10-01T18:35:24.800Z,16.92
2022-10-01T18:38:36.268Z,16.13
2022-10-01T18:41:34.722Z,15.73
2022-10-01T18:44:26.259Z,16.23
2022-10-01T18:47:35.697Z,16.42
2022-10-01T18:50:40.273Z,16.52
2022-10-01T18:53:45.938Z,16.27
2022-10-01T18:56:43.153Z,16.15
2022-10-01T18:59:46.255Z,16.92
2022-10-01T19:02:31.214Z,17.27
2022-10-01T19:05:58.277Z,16.75
2022-10-01T19:08:52.629Z,17.70
2022-10-01T19:11:59.257Z,18.25
2022-10-01T19:15:11.255Z,18.05
2022-10-01T19:18:14.671Z,18.38
2022-10-01T19:21:37.163Z,18.60
2022-10-01T19:24:34.683Z,17.50
2022-10-01T19:27:35.251Z,19.02
2022-10-01T19:30:24.673Z,18.83
2022-10-01T19:33:20.303Z,17.85
2022-10-01T19:36:07.944Z,19.80
2022-10-01T19:39:02.322Z,18.30
2022-10-01T19:41:57.672Z,18.67
2022-10-01T19:44:53.203Z,19.83
2022-10-01T19:47:53.591Z,18.90
2022-10-01T19:50:47.147Z,18.92
2022-10-01T19:53:48.259Z,18.92
2022-10-01T19:56:42.971Z,19.33
2022-10-01T19:59:27.176Z,18.88
2022-10-01T20:02:41.963Z,19.65
2022-10-01T20:05:30.186Z,19.17
2022-10-01T20:08:28.805Z,20.00
2022-10-01T20:11:29.174Z,20.15
2022-10-01T20:14:41.529Z,19.63
2022-10-01T20:17:52.273Z,19.48
2022-10-01T20:21:04.581Z,18.80
2022-10-01T20:23:56.260Z,19.75
2022-10-01T20:27:14.152Z,17.90
2022-10-01T20:30:15.537Z,21.05
2022-10-01T20:33:18.250Z,19.98
2022-10-01T20:36:34.638Z,20.80
2022-10-01T20:39:27.580Z,20.08
2022-10-01T20:42:26.243Z,20.45
2022-10-01T20:45:17.250Z,19.88
2022-10-01T20:48:20.949Z,19.73
2022-10-01T20:51:27.265Z,20.52
2022-10-01T20:54:17.808Z,20.05
2022-10-01T20:57:17.249Z,20.30
2022-10-01T21:00:04.717Z,20.23
2022-10-01T21:02:59.183Z,21.60
2022-10-01T21:05:50.811Z,20.73
2022-10-01T21:09:15.209Z,21.63
2022-10-01T21:12:27.533Z,20.17
2022-10-01T21:15:25.299Z,21.33
2022-10-01T21:18:35.547Z,18.60
2022-10-01T21:21:41.238Z,19.08
2022-10-01T21:24:35.534Z,19.92
2022-10-01T21:27:36.247Z,18.83
2022-10-01T21:30:21.592Z,20.55
2022-10-01T21:33:23.237Z,18.73
2022-10-01T21:36:10.057Z,19.90
2022-10-01T21:39:04.271Z,20.77
2022-10-01T21:41:56.630Z,19.98
2022-10-01T21:44:54.247Z,19.67
2022-10-01T21:48:06.142Z,19.00
2022-10-01T21:51:02.254Z,18.92
2022-10-01T21:54:03.100Z,20.50
2022-10-01T21:57:13.300Z,19.55
2022-10-01T22:00:20.039Z,19.58
2022-10-01T22:03:27.241Z,20.08
2022-10-01T22:06:37.284Z,20.65
2022-10-01T22:09:40.319Z,19.58
2022-10-01T22:12:24.105Z,19.92
2022-10-01T22:15:31.275Z,20.65
2022-10-01T22:18:19.544Z,21.83
2022-10-01T22:21:13.176Z,21.98
2022-10-01T22:24:18.157Z,20.40
2022-10-01T22:27:26.298Z,21.30
2022-10-01T22:30:43.524Z,20.75
2022-10-01T22:33:48.246Z,21.38
2022-10-01T22:36:42.570Z,20.55
2022-10-01T22:39:42.154Z,19.95
2022-10-01T22:42:31.594Z,19.08
2022-10-01T22:45:32.297Z,19.95
2022-10-01T22:48:48.520Z,19.88
2022-10-01T22:51:36.242Z,20.40
2022-10-01T22:54:51.550Z,20.70
2022-10-01T22:57:58.289Z,19.00
2022-10-01T23:01:12.261Z,19.88
2022-10-01T23:04:29.240Z,21.42
2022-10-01T23:07:25.224Z,22.15
2022-10-01T23:10:32.240Z,20.23
2022-10-01T23:13:37.063Z,20.83
2022-10-01T23:16:40.422Z,21.23
2022-10-01T23:19:41.575Z,19.30
2022-10-01T23:22:41.249Z,19.80
2022-10-01T23:25:36.974Z,19.15
2022-10-01T23:28:55.233Z,22.50
2022-10-01T23:31:46.308Z,21.67
2022-10-01T23:34:47.292Z,21.70
2022-10-01T23:38:18.686Z,22.88
2022-10-01T23:41:02.295Z,22.15
2022-10-01T23:43:50.632Z,23.45
2022-10-01T23:46:45.162Z,22.13
2022-10-01T23:49:38.566Z,23.50
2022-10-01T23:52:41.260Z,22.63
2022-10-01T23:56:12.156Z,24.27
2022-10-01T23:59:08.240Z,25.75
